Terminal Aerodrome Forecast
Issued by NWS

Home | Current Version | Previous Version | Text Only | Print | Product List | Glossary Off
Versions: 1 2 3 4 5 6 7 8 9 10 11 12 13 14 15 16 17 18 19 20 21

000
FTUS43 KABR 251730
TAFMBG
TAF
KMBG 251730Z 2518/2618 19005KT P6SM VCSH BKN080
     FM260200 10004KT P6SM BKN060
     FM260800 27007KT P6SM BKN120
     FM261100 32007KT P6SM SCT100=

USA.gov is the U.S. government's official web portal to all federal, state and local government web resources and services.